sensor_id;sensor_type;location;lat;lon;timestamp;P1;durP1;ratioP1;P2;durP2;ratioP2
13855;SDS011;6998;53.608;9.958;2022-10-30T00:00:18;33.03;;;22.65;;
13855;SDS011;6998;53.608;9.958;2022-10-30T00:02:45;35.25;;;26.17;;
13855;SDS011;6998;53.608;9.958;2022-10-30T00:05:14;32.03;;;23.00;;
13855;SDS011;6998;53.608;9.958;2022-10-30T00:07:41;29.80;;;24.92;;
13855;SDS011;6998;53.608;9.958;2022-10-30T00:10:08;30.58;;;23.98;;
13855;SDS011;6998;53.608;9.958;2022-10-30T00:12:35;26.55;;;21.80;;
13855;SDS011;6998;53.608;9.958;2022-10-30T00:15:02;28.17;;;21.38;;
13855;SDS011;6998;53.608;9.958;2022-10-30T00:17:30;32.42;;;23.02;;
13855;SDS011;6998;53.608;9.958;2022-10-30T00:19:57;34.30;;;25.92;;
13855;SDS011;6998;53.608;9.958;2022-10-30T00:22:25;33.92;;;26.25;;
13855;SDS011;6998;53.608;9.958;2022-10-30T00:24:52;36.10;;;25.30;;
13855;SDS011;6998;53.608;9.958;2022-10-30T00:27:19;35.90;;;28.00;;
13855;SDS011;6998;53.608;9.958;2022-10-30T00:29:46;34.13;;;25.98;;
13855;SDS011;6998;53.608;9.958;2022-10-30T00:32:15;37.50;;;26.73;;
13855;SDS011;6998;53.608;9.958;2022-10-30T00:34:42;40.47;;;32.92;;
13855;SDS011;6998;53.608;9.958;2022-10-30T00:37:09;32.72;;;25.90;;
13855;SDS011;6998;53.608;9.958;2022-10-30T00:39:37;33.50;;;25.50;;
13855;SDS011;6998;53.608;9.958;2022-10-30T00:42:04;29.52;;;25.67;;
13855;SDS011;6998;53.608;9.958;2022-10-30T00:44:31;31.67;;;24.83;;
13855;SDS011;6998;53.608;9.958;2022-10-30T00:47:02;34.75;;;25.70;;
13855;SDS011;6998;53.608;9.958;2022-10-30T00:49:34;40.05;;;28.73;;
13855;SDS011;6998;53.608;9.958;2022-10-30T00:52:04;39.58;;;28.83;;
13855;SDS011;6998;53.608;9.958;2022-10-30T00:54:34;32.75;;;27.02;;
13855;SDS011;6998;53.608;9.958;2022-10-30T00:57:03;32.92;;;25.70;;
13855;SDS011;6998;53.608;9.958;2022-10-30T00:59:33;28.55;;;24.30;;
13855;SDS011;6998;53.608;9.958;2022-10-30T01:02:02;32.60;;;25.77;;
13855;SDS011;6998;53.608;9.958;2022-10-30T01:04:29;32.15;;;24.75;;
13855;SDS011;6998;53.608;9.958;2022-10-30T01:06:59;32.58;;;27.00;;
13855;SDS011;6998;53.608;9.958;2022-10-30T01:09:31;33.55;;;27.30;;
13855;SDS011;6998;53.608;9.958;2022-10-30T01:12:00;30.50;;;25.42;;
13855;SDS011;6998;53.608;9.958;2022-10-30T01:14:26;34.65;;;26.48;;
13855;SDS011;6998;53.608;9.958;2022-10-30T01:16:58;32.90;;;25.70;;
13855;SDS011;6998;53.608;9.958;2022-10-30T01:19:41;33.60;;;26.25;;
13855;SDS011;6998;53.608;9.958;2022-10-30T01:22:18;33.47;;;27.92;;
13855;SDS011;6998;53.608;9.958;2022-10-30T01:24:57;46.88;;;33.13;;
13855;SDS011;6998;53.608;9.958;2022-10-30T01:27:36;36.30;;;28.77;;
13855;SDS011;6998;53.608;9.958;2022-10-30T01:30:10;36.33;;;27.92;;
13855;SDS011;6998;53.608;9.958;2022-10-30T01:32:48;43.03;;;34.03;;
13855;SDS011;6998;53.608;9.958;2022-10-30T01:35:26;41.30;;;31.70;;
13855;SDS011;6998;53.608;9.958;2022-10-30T01:38:00;47.33;;;34.38;;
13855;SDS011;6998;53.608;9.958;2022-10-30T01:40:31;43.78;;;31.85;;
13855;SDS011;6998;53.608;9.958;2022-10-30T01:43:00;42.28;;;32.40;;
13855;SDS011;6998;53.608;9.958;2022-10-30T01:45:33;41.95;;;32.45;;
13855;SDS011;6998;53.608;9.958;2022-10-30T01:48:17;43.05;;;34.80;;
13855;SDS011;6998;53.608;9.958;2022-10-30T01:51:14;39.75;;;31.13;;
13855;SDS011;6998;53.608;9.958;2022-10-30T01:53:50;35.30;;;28.63;;
13855;SDS011;6998;53.608;9.958;2022-10-30T01:56:25;40.50;;;31.52;;
13855;SDS011;6998;53.608;9.958;2022-10-30T01:59:02;35.83;;;30.08;;
13855;SDS011;6998;53.608;9.958;2022-10-30T02:01:35;37.78;;;27.65;;
13855;SDS011;6998;53.608;9.958;2022-10-30T02:04:03;36.35;;;28.10;;
13855;SDS011;6998;53.608;9.958;2022-10-30T02:06:32;37.70;;;30.30;;
13855;SDS011;6998;53.608;9.958;2022-10-30T02:09:00;38.35;;;28.55;;
13855;SDS011;6998;53.608;9.958;2022-10-30T02:11:27;34.90;;;27.52;;
13855;SDS011;6998;53.608;9.958;2022-10-30T02:13:55;35.30;;;28.35;;
13855;SDS011;6998;53.608;9.958;2022-10-30T02:16:25;37.55;;;30.20;;
13855;SDS011;6998;53.608;9.958;2022-10-30T02:18:52;35.38;;;28.27;;
13855;SDS011;6998;53.608;9.958;2022-10-30T02:21:20;33.22;;;26.77;;
13855;SDS011;6998;53.608;9.958;2022-10-30T02:23:47;31.48;;;25.95;;
13855;SDS011;6998;53.608;9.958;2022-10-30T02:26:13;33.53;;;26.77;;
13855;SDS011;6998;53.608;9.958;2022-10-30T02:28:40;33.38;;;27.13;;
13855;SDS011;6998;53.608;9.958;2022-10-30T02:31:07;44.30;;;30.92;;
13855;SDS011;6998;53.608;9.958;2022-10-30T02:33:33;34.63;;;26.80;;
13855;SDS011;6998;53.608;9.958;2022-10-30T02:36:00;32.20;;;25.65;;
13855;SDS011;6998;53.608;9.958;2022-10-30T02:38:28;33.17;;;26.15;;
13855;SDS011;6998;53.608;9.958;2022-10-30T02:40:56;29.42;;;25.05;;
13855;SDS011;6998;53.608;9.958;2022-10-30T02:43:23;30.75;;;24.05;;
13855;SDS011;6998;53.608;9.958;2022-10-30T02:45:50;30.17;;;25.27;;
13855;SDS011;6998;53.608;9.958;2022-10-30T02:48:17;31.17;;;25.65;;
13855;SDS011;6998;53.608;9.958;2022-10-30T02:50:44;32.97;;;25.25;;
13855;SDS011;6998;53.608;9.958;2022-10-30T02:53:10;32.78;;;24.63;;
13855;SDS011;6998;53.608;9.958;2022-10-30T02:55:38;30.02;;;23.48;;
13855;SDS011;6998;53.608;9.958;2022-10-30T02:58:05;31.40;;;23.73;;
13855;SDS011;6998;53.608;9.958;2022-10-30T03:00:32;37.70;;;25.30;;
13855;SDS011;6998;53.608;9.958;2022-10-30T03:02:59;37.60;;;27.00;;
13855;SDS011;6998;53.608;9.958;2022-10-30T03:05:25;33.67;;;23.90;;
13855;SDS011;6998;53.608;9.958;2022-10-30T03:07:52;32.53;;;26.00;;
13855;SDS011;6998;53.608;9.958;2022-10-30T03:10:20;34.28;;;24.23;;
13855;SDS011;6998;53.608;9.958;2022-10-30T03:12:48;29.20;;;22.90;;
13855;SDS011;6998;53.608;9.958;2022-10-30T03:15:14;30.45;;;22.27;;
13855;SDS011;6998;53.608;9.958;2022-10-30T03:17:41;30.58;;;22.80;;
13855;SDS011;6998;53.608;9.958;2022-10-30T03:20:08;27.13;;;20.90;;
13855;SDS011;6998;53.608;9.958;2022-10-30T03:22:36;33.40;;;21.92;;
13855;SDS011;6998;53.608;9.958;2022-10-30T03:25:03;29.65;;;20.55;;
13855;SDS011;6998;53.608;9.958;2022-10-30T03:27:30;27.92;;;22.38;;
13855;SDS011;6998;53.608;9.958;2022-10-30T03:29:58;29.83;;;21.35;;
13855;SDS011;6998;53.608;9.958;2022-10-30T03:32:25;26.70;;;20.27;;
13855;SDS011;6998;53.608;9.958;2022-10-30T03:34:51;24.30;;;20.63;;
13855;SDS011;6998;53.608;9.958;2022-10-30T03:37:18;27.70;;;19.55;;
13855;SDS011;6998;53.608;9.958;2022-10-30T03:39:45;28.08;;;20.00;;
13855;SDS011;6998;53.608;9.958;2022-10-30T03:42:12;24.45;;;18.80;;
13855;SDS011;6998;53.608;9.958;2022-10-30T03:44:38;24.63;;;18.67;;
13855;SDS011;6998;53.608;9.958;2022-10-30T03:47:06;23.92;;;18.08;;
13855;SDS011;6998;53.608;9.958;2022-10-30T03:49:33;23.73;;;19.20;;
13855;SDS011;6998;53.608;9.958;2022-10-30T03:52:00;25.80;;;18.15;;
13855;SDS011;6998;53.608;9.958;2022-10-30T03:54:27;25.60;;;19.58;;
13855;SDS011;6998;53.608;9.958;2022-10-30T03:56:53;27.70;;;19.58;;
13855;SDS011;6998;53.608;9.958;2022-10-30T03:59:20;28.35;;;20.63;;
13855;SDS011;6998;53.608;9.958;2022-10-30T04:01:47;31.45;;;20.80;;
13855;SDS011;6998;53.608;9.958;2022-10-30T04:04:15;25.35;;;19.60;;
13855;SDS011;6998;53.608;9.958;2022-10-30T04:06:42;23.00;;;17.90;;
13855;SDS011;6998;53.608;9.958;2022-10-30T04:09:08;25.35;;;19.48;;
13855;SDS011;6998;53.608;9.958;2022-10-30T04:11:35;23.80;;;18.73;;
13855;SDS011;6998;53.608;9.958;2022-10-30T04:14:02;24.55;;;17.95;;
13855;SDS011;6998;53.608;9.958;2022-10-30T04:16:29;24.70;;;18.73;;
13855;SDS011;6998;53.608;9.958;2022-10-30T04:18:55;22.35;;;18.58;;
13855;SDS011;6998;53.608;9.958;2022-10-30T04:21:23;22.58;;;17.63;;
13855;SDS011;6998;53.608;9.958;2022-10-30T04:23:50;24.05;;;17.60;;
13855;SDS011;6998;53.608;9.958;2022-10-30T04:26:17;20.98;;;16.60;;
13855;SDS011;6998;53.608;9.958;2022-10-30T04:28:46;23.02;;;16.65;;
13855;SDS011;6998;53.608;9.958;2022-10-30T04:31:13;21.55;;;17.40;;
13855;SDS011;6998;53.608;9.958;2022-10-30T04:33:39;20.80;;;16.80;;
13855;SDS011;6998;53.608;9.958;2022-10-30T04:36:06;24.60;;;16.52;;
13855;SDS011;6998;53.608;9.958;2022-10-30T04:38:35;25.17;;;17.05;;
13855;SDS011;6998;53.608;9.958;2022-10-30T04:41:02;23.52;;;17.50;;
13855;SDS011;6998;53.608;9.958;2022-10-30T04:43:28;21.58;;;15.70;;
13855;SDS011;6998;53.608;9.958;2022-10-30T04:45:55;21.23;;;15.50;;
13855;SDS011;6998;53.608;9.958;2022-10-30T04:48:22;20.20;;;15.40;;
13855;SDS011;6998;53.608;9.958;2022-10-30T04:50:49;19.17;;;15.38;;
13855;SDS011;6998;53.608;9.958;2022-10-30T04:53:16;22.20;;;15.45;;
13855;SDS011;6998;53.608;9.958;2022-10-30T04:55:45;18.88;;;15.18;;
13855;SDS011;6998;53.608;9.958;2022-10-30T04:58:12;21.23;;;16.20;;
13855;SDS011;6998;53.608;9.958;2022-10-30T05:00:39;19.67;;;15.63;;
13855;SDS011;6998;53.608;9.958;2022-10-30T05:03:06;18.05;;;13.98;;
13855;SDS011;6998;53.608;9.958;2022-10-30T05:05:35;18.08;;;14.02;;
13855;SDS011;6998;53.608;9.958;2022-10-30T05:08:02;17.70;;;13.55;;
13855;SDS011;6998;53.608;9.958;2022-10-30T05:10:28;18.35;;;14.77;;
13855;SDS011;6998;53.608;9.958;2022-10-30T05:12:57;20.60;;;14.85;;
13855;SDS011;6998;53.608;9.958;2022-10-30T05:15:24;19.15;;;14.15;;
13855;SDS011;6998;53.608;9.958;2022-10-30T05:17:51;14.55;;;12.77;;
13855;SDS011;6998;53.608;9.958;2022-10-30T05:20:18;18.70;;;12.63;;
13855;SDS011;6998;53.608;9.958;2022-10-30T05:22:45;19.92;;;13.40;;
13855;SDS011;6998;53.608;9.958;2022-10-30T05:25:19;17.23;;;13.38;;
13855;SDS011;6998;53.608;9.958;2022-10-30T05:27:45;19.45;;;13.50;;
13855;SDS011;6998;53.608;9.958;2022-10-30T05:30:13;17.05;;;13.18;;
13855;SDS011;6998;53.608;9.958;2022-10-30T05:32:40;15.93;;;12.80;;
13855;SDS011;6998;53.608;9.958;2022-10-30T05:35:07;15.98;;;12.57;;
13855;SDS011;6998;53.608;9.958;2022-10-30T05:37:34;16.88;;;12.13;;
13855;SDS011;6998;53.608;9.958;2022-10-30T05:40:01;17.42;;;12.85;;
13855;SDS011;6998;53.608;9.958;2022-10-30T05:42:28;17.17;;;13.20;;
13855;SDS011;6998;53.608;9.958;2022-10-30T05:44:55;15.55;;;12.80;;
13855;SDS011;6998;53.608;9.958;2022-10-30T05:47:23;16.38;;;13.35;;
13855;SDS011;6998;53.608;9.958;2022-10-30T05:49:49;16.55;;;13.13;;
13855;SDS011;6998;53.608;9.958;2022-10-30T05:52:16;19.30;;;12.88;;
13855;SDS011;6998;53.608;9.958;2022-10-30T05:54:43;16.08;;;13.07;;
13855;SDS011;6998;53.608;9.958;2022-10-30T05:57:10;16.40;;;12.45;;
13855;SDS011;6998;53.608;9.958;2022-10-30T05:59:36;17.30;;;12.98;;
13855;SDS011;6998;53.608;9.958;2022-10-30T06:02:03;16.77;;;12.80;;
13855;SDS011;6998;53.608;9.958;2022-10-30T06:04:31;16.63;;;11.90;;
13855;SDS011;6998;53.608;9.958;2022-10-30T06:06:58;14.05;;;12.10;;
13855;SDS011;6998;53.608;9.958;2022-10-30T06:09:25;18.67;;;12.77;;
13855;SDS011;6998;53.608;9.958;2022-10-30T06:11:51;16.80;;;12.35;;
13855;SDS011;6998;53.608;9.958;2022-10-30T06:14:19;15.27;;;11.70;;
13855;SDS011;6998;53.608;9.958;2022-10-30T06:16:45;15.43;;;11.73;;
13855;SDS011;6998;53.608;9.958;2022-10-30T06:19:12;15.15;;;11.93;;
13855;SDS011;6998;53.608;9.958;2022-10-30T06:21:40;15.93;;;12.52;;
13855;SDS011;6998;53.608;9.958;2022-10-30T06:24:07;19.30;;;13.93;;
13855;SDS011;6998;53.608;9.958;2022-10-30T06:26:34;22.08;;;16.52;;
13855;SDS011;6998;53.608;9.958;2022-10-30T06:29:01;20.38;;;16.67;;
13855;SDS011;6998;53.608;9.958;2022-10-30T06:31:29;19.38;;;14.68;;
13855;SDS011;6998;53.608;9.958;2022-10-30T06:33:56;20.65;;;14.88;;
13855;SDS011;6998;53.608;9.958;2022-10-30T06:36:23;20.30;;;14.52;;
13855;SDS011;6998;53.608;9.958;2022-10-30T06:38:51;22.45;;;14.48;;
13855;SDS011;6998;53.608;9.958;2022-10-30T06:41:18;18.33;;;14.05;;
13855;SDS011;6998;53.608;9.958;2022-10-30T06:43:44;19.90;;;14.75;;
13855;SDS011;6998;53.608;9.958;2022-10-30T06:46:11;17.50;;;13.15;;
13855;SDS011;6998;53.608;9.958;2022-10-30T06:48:38;16.85;;;12.80;;
13855;SDS011;6998;53.608;9.958;2022-10-30T06:51:05;19.08;;;12.93;;
13855;SDS011;6998;53.608;9.958;2022-10-30T06:53:32;19.98;;;14.30;;
13855;SDS011;6998;53.608;9.958;2022-10-30T06:56:00;16.73;;;12.73;;
13855;SDS011;6998;53.608;9.958;2022-10-30T06:58:28;15.07;;;12.23;;
13855;SDS011;6998;53.608;9.958;2022-10-30T07:00:57;21.15;;;14.40;;
13855;SDS011;6998;53.608;9.958;2022-10-30T07:03:25;17.60;;;13.77;;
13855;SDS011;6998;53.608;9.958;2022-10-30T07:05:52;17.05;;;13.57;;
13855;SDS011;6998;53.608;9.958;2022-10-30T07:08:19;17.08;;;14.00;;
13855;SDS011;6998;53.608;9.958;2022-10-30T07:10:46;17.67;;;13.98;;
13855;SDS011;6998;53.608;9.958;2022-10-30T07:13:14;17.30;;;13.98;;
13855;SDS011;6998;53.608;9.958;2022-10-30T07:15:41;28.90;;;16.75;;
13855;SDS011;6998;53.608;9.958;2022-10-30T07:18:08;26.45;;;17.55;;
13855;SDS011;6998;53.608;9.958;2022-10-30T07:20:35;54.80;;;28.70;;
13855;SDS011;6998;53.608;9.958;2022-10-30T07:23:02;52.58;;;28.42;;
13855;SDS011;6998;53.608;9.958;2022-10-30T07:25:29;48.85;;;26.17;;
13855;SDS011;6998;53.608;9.958;2022-10-30T07:27:56;40.42;;;25.55;;
13855;SDS011;6998;53.608;9.958;2022-10-30T07:30:25;34.88;;;23.35;;
13855;SDS011;6998;53.608;9.958;2022-10-30T07:32:55;40.70;;;25.42;;
13855;SDS011;6998;53.608;9.958;2022-10-30T07:35:22;33.33;;;21.83;;
13855;SDS011;6998;53.608;9.958;2022-10-30T07:37:49;30.52;;;21.00;;
13855;SDS011;6998;53.608;9.958;2022-10-30T07:40:16;32.75;;;22.27;;
13855;SDS011;6998;53.608;9.958;2022-10-30T07:42:43;34.78;;;23.23;;
13855;SDS011;6998;53.608;9.958;2022-10-30T07:45:09;33.85;;;23.48;;
13855;SDS011;6998;53.608;9.958;2022-10-30T07:47:39;39.40;;;26.30;;
13855;SDS011;6998;53.608;9.958;2022-10-30T07:50:06;40.53;;;26.27;;
13855;SDS011;6998;53.608;9.958;2022-10-30T07:52:33;32.95;;;23.73;;
13855;SDS011;6998;53.608;9.958;2022-10-30T07:55:00;36.67;;;22.50;;
13855;SDS011;6998;53.608;9.958;2022-10-30T07:57:29;28.70;;;19.08;;
13855;SDS011;6998;53.608;9.958;2022-10-30T07:59:56;36.35;;;23.50;;
13855;SDS011;6998;53.608;9.958;2022-10-30T08:02:23;29.25;;;20.48;;
13855;SDS011;6998;53.608;9.958;2022-10-30T08:04:51;23.38;;;17.10;;
13855;SDS011;6998;53.608;9.958;2022-10-30T08:07:18;29.33;;;19.13;;
13855;SDS011;6998;53.608;9.958;2022-10-30T08:09:44;23.90;;;16.48;;
13855;SDS011;6998;53.608;9.958;2022-10-30T08:12:11;20.17;;;15.98;;
13855;SDS011;6998;53.608;9.958;2022-10-30T08:14:38;16.52;;;14.52;;
13855;SDS011;6998;53.608;9.958;2022-10-30T08:17:05;20.55;;;14.65;;
13855;SDS011;6998;53.608;9.958;2022-10-30T08:19:34;16.67;;;14.52;;
13855;SDS011;6998;53.608;9.958;2022-10-30T08:22:02;20.63;;;14.43;;
13855;SDS011;6998;53.608;9.958;2022-10-30T08:24:29;20.13;;;13.57;;
13855;SDS011;6998;53.608;9.958;2022-10-30T08:26:56;20.55;;;12.95;;
13855;SDS011;6998;53.608;9.958;2022-10-30T08:29:23;21.33;;;14.48;;
13855;SDS011;6998;53.608;9.958;2022-10-30T08:31:49;20.73;;;14.43;;
13855;SDS011;6998;53.608;9.958;2022-10-30T08:34:16;21.08;;;14.70;;
13855;SDS011;6998;53.608;9.958;2022-10-30T08:36:43;20.50;;;13.48;;
13855;SDS011;6998;53.608;9.958;2022-10-30T08:39:11;20.33;;;13.32;;
13855;SDS011;6998;53.608;9.958;2022-10-30T08:41:38;20.23;;;14.15;;
13855;SDS011;6998;53.608;9.958;2022-10-30T08:44:04;21.92;;;14.48;;
13855;SDS011;6998;53.608;9.958;2022-10-30T08:46:31;21.73;;;14.43;;
13855;SDS011;6998;53.608;9.958;2022-10-30T08:48:58;24.40;;;14.52;;
13855;SDS011;6998;53.608;9.958;2022-10-30T08:51:25;21.05;;;13.50;;
13855;SDS011;6998;53.608;9.958;2022-10-30T08:53:52;25.33;;;14.50;;
13855;SDS011;6998;53.608;9.958;2022-10-30T08:56:20;23.85;;;13.18;;
13855;SDS011;6998;53.608;9.958;2022-10-30T08:58:48;23.83;;;14.90;;
13855;SDS011;6998;53.608;9.958;2022-10-30T09:01:15;23.60;;;14.02;;
13855;SDS011;6998;53.608;9.958;2022-10-30T09:03:43;23.17;;;14.52;;
13855;SDS011;6998;53.608;9.958;2022-10-30T09:06:10;25.55;;;14.40;;
13855;SDS011;6998;53.608;9.958;2022-10-30T09:08:37;22.95;;;14.27;;
13855;SDS011;6998;53.608;9.958;2022-10-30T09:11:04;21.58;;;14.13;;
13855;SDS011;6998;53.608;9.958;2022-10-30T09:13:32;21.23;;;13.70;;
13855;SDS011;6998;53.608;9.958;2022-10-30T09:15:59;21.35;;;12.90;;
13855;SDS011;6998;53.608;9.958;2022-10-30T09:18:26;19.45;;;12.82;;
13855;SDS011;6998;53.608;9.958;2022-10-30T09:20:53;20.92;;;12.52;;
13855;SDS011;6998;53.608;9.958;2022-10-30T09:23:20;22.08;;;13.50;;
13855;SDS011;6998;53.608;9.958;2022-10-30T09:25:47;22.95;;;12.52;;
13855;SDS011;6998;53.608;9.958;2022-10-30T09:28:14;20.40;;;12.68;;
13855;SDS011;6998;53.608;9.958;2022-10-30T09:30:42;16.27;;;12.70;;
13855;SDS011;6998;53.608;9.958;2022-10-30T09:33:08;18.60;;;13.02;;
13855;SDS011;6998;53.608;9.958;2022-10-30T09:35:35;21.55;;;11.75;;
13855;SDS011;6998;53.608;9.958;2022-10-30T09:38:02;22.42;;;12.05;;
13855;SDS011;6998;53.608;9.958;2022-10-30T09:40:32;17.63;;;11.65;;
13855;SDS011;6998;53.608;9.958;2022-10-30T09:43:08;20.70;;;11.43;;
13855;SDS011;6998;53.608;9.958;2022-10-30T09:45:54;24.23;;;10.73;;
13855;SDS011;6998;53.608;9.958;2022-10-30T09:48:47;22.15;;;11.10;;
13855;SDS011;6998;53.608;9.958;2022-10-30T09:51:39;18.35;;;12.32;;
13855;SDS011;6998;53.608;9.958;2022-10-30T09:54:20;20.20;;;12.15;;
13855;SDS011;6998;53.608;9.958;2022-10-30T09:56:55;18.55;;;11.65;;
13855;SDS011;6998;53.608;9.958;2022-10-30T09:59:30;21.00;;;11.07;;
13855;SDS011;6998;53.608;9.958;2022-10-30T10:02:15;18.58;;;11.52;;
13855;SDS011;6998;53.608;9.958;2022-10-30T10:04:53;18.88;;;11.27;;
13855;SDS011;6998;53.608;9.958;2022-10-30T10:07:27;19.95;;;11.63;;
13855;SDS011;6998;53.608;9.958;2022-10-30T10:09:59;17.23;;;11.65;;
13855;SDS011;6998;53.608;9.958;2022-10-30T10:12:32;16.52;;;10.95;;
13855;SDS011;6998;53.608;9.958;2022-10-30T10:15:03;18.88;;;10.95;;
13855;SDS011;6998;53.608;9.958;2022-10-30T10:17:38;17.95;;;10.70;;
13855;SDS011;6998;53.608;9.958;2022-10-30T10:20:12;16.77;;;10.30;;
13855;SDS011;6998;53.608;9.958;2022-10-30T10:22:43;19.25;;;11.95;;
13855;SDS011;6998;53.608;9.958;2022-10-30T10:25:14;25.65;;;11.02;;
13855;SDS011;6998;53.608;9.958;2022-10-30T10:27:52;15.65;;;10.73;;
13855;SDS011;6998;53.608;9.958;2022-10-30T10:30:28;17.98;;;10.70;;
13855;SDS011;6998;53.608;9.958;2022-10-30T10:33:12;24.15;;;11.38;;
13855;SDS011;6998;53.608;9.958;2022-10-30T10:36:00;20.10;;;10.98;;
13855;SDS011;6998;53.608;9.958;2022-10-30T10:38:48;16.05;;;10.60;;
13855;SDS011;6998;53.608;9.958;2022-10-30T10:41:25;17.88;;;10.77;;
13855;SDS011;6998;53.608;9.958;2022-10-30T10:44:06;25.75;;;11.18;;
13855;SDS011;6998;53.608;9.958;2022-10-30T10:46:46;15.57;;;10.45;;
13855;SDS011;6998;53.608;9.958;2022-10-30T10:49:26;18.17;;;11.23;;
13855;SDS011;6998;53.608;9.958;2022-10-30T10:52:06;20.48;;;10.43;;
13855;SDS011;6998;53.608;9.958;2022-10-30T10:54:36;19.58;;;11.27;;
13855;SDS011;6998;53.608;9.958;2022-10-30T10:57:09;29.25;;;11.85;;
13855;SDS011;6998;53.608;9.958;2022-10-30T10:59:42;30.77;;;10.70;;
13855;SDS011;6998;53.608;9.958;2022-10-30T11:02:21;20.80;;;11.10;;
13855;SDS011;6998;53.608;9.958;2022-10-30T11:04:58;21.40;;;10.50;;
13855;SDS011;6998;53.608;9.958;2022-10-30T11:07:31;19.15;;;10.50;;
13855;SDS011;6998;53.608;9.958;2022-10-30T11:09:58;15.65;;;10.00;;
13855;SDS011;6998;53.608;9.958;2022-10-30T11:12:26;15.20;;;9.75;;
13855;SDS011;6998;53.608;9.958;2022-10-30T11:14:54;24.02;;;10.90;;
13855;SDS011;6998;53.608;9.958;2022-10-30T11:17:23;16.52;;;10.43;;
13855;SDS011;6998;53.608;9.958;2022-10-30T11:19:56;17.17;;;10.00;;
13855;SDS011;6998;53.608;9.958;2022-10-30T11:22:27;20.63;;;10.55;;
13855;SDS011;6998;53.608;9.958;2022-10-30T11:25:00;20.50;;;10.70;;
13855;SDS011;6998;53.608;9.958;2022-10-30T11:27:44;16.90;;;9.80;;
13855;SDS011;6998;53.608;9.958;2022-10-30T11:30:16;17.52;;;8.75;;
13855;SDS011;6998;53.608;9.958;2022-10-30T11:32:45;19.45;;;9.15;;
13855;SDS011;6998;53.608;9.958;2022-10-30T11:35:14;15.43;;;8.82;;
13855;SDS011;6998;53.608;9.958;2022-10-30T11:37:47;16.17;;;8.57;;
13855;SDS011;6998;53.608;9.958;2022-10-30T11:40:16;15.38;;;8.70;;
13855;SDS011;6998;53.608;9.958;2022-10-30T11:42:46;15.25;;;8.70;;
13855;SDS011;6998;53.608;9.958;2022-10-30T11:45:15;15.00;;;8.73;;
13855;SDS011;6998;53.608;9.958;2022-10-30T11:47:45;18.65;;;8.95;;
13855;SDS011;6998;53.608;9.958;2022-10-30T11:50:17;16.75;;;8.63;;
13855;SDS011;6998;53.608;9.958;2022-10-30T11:52:46;15.40;;;9.45;;
13855;SDS011;6998;53.608;9.958;2022-10-30T11:55:17;21.67;;;8.13;;
13855;SDS011;6998;53.608;9.958;2022-10-30T11:57:46;16.85;;;8.38;;
13855;SDS011;6998;53.608;9.958;2022-10-30T12:00:16;18.73;;;9.90;;
13855;SDS011;6998;53.608;9.958;2022-10-30T12:02:44;13.45;;;9.10;;
13855;SDS011;6998;53.608;9.958;2022-10-30T12:05:36;14.80;;;8.43;;
13855;SDS011;6998;53.608;9.958;2022-10-30T12:08:15;16.38;;;8.95;;
13855;SDS011;6998;53.608;9.958;2022-10-30T12:10:44;17.40;;;9.02;;
13855;SDS011;6998;53.608;9.958;2022-10-30T12:13:12;15.20;;;9.02;;
13855;SDS011;6998;53.608;9.958;2022-10-30T12:15:41;14.48;;;7.88;;
13855;SDS011;6998;53.608;9.958;2022-10-30T12:18:14;18.45;;;9.10;;
13855;SDS011;6998;53.608;9.958;2022-10-30T12:20:46;14.45;;;8.65;;
13855;SDS011;6998;53.608;9.958;2022-10-30T12:23:18;16.63;;;9.25;;
13855;SDS011;6998;53.608;9.958;2022-10-30T12:25:48;16.63;;;8.70;;
13855;SDS011;6998;53.608;9.958;2022-10-30T12:28:18;13.55;;;7.93;;
13855;SDS011;6998;53.608;9.958;2022-10-30T12:30:48;16.55;;;8.38;;
13855;SDS011;6998;53.608;9.958;2022-10-30T12:33:19;18.15;;;8.80;;
13855;SDS011;6998;53.608;9.958;2022-10-30T12:35:51;20.60;;;9.15;;
13855;SDS011;6998;53.608;9.958;2022-10-30T12:38:23;17.15;;;10.00;;
13855;SDS011;6998;53.608;9.958;2022-10-30T12:40:56;21.95;;;9.45;;
13855;SDS011;6998;53.608;9.958;2022-10-30T12:43:26;15.95;;;8.27;;
13855;SDS011;6998;53.608;9.958;2022-10-30T12:45:55;16.27;;;9.00;;
13855;SDS011;6998;53.608;9.958;2022-10-30T12:48:31;16.15;;;9.23;;
13855;SDS011;6998;53.608;9.958;2022-10-30T12:51:09;16.30;;;8.60;;
13855;SDS011;6998;53.608;9.958;2022-10-30T12:53:42;14.68;;;7.53;;
13855;SDS011;6998;53.608;9.958;2022-10-30T12:56:14;15.25;;;8.45;;
13855;SDS011;6998;53.608;9.958;2022-10-30T12:58:45;13.73;;;8.57;;
13855;SDS011;6998;53.608;9.958;2022-10-30T13:01:16;18.58;;;8.57;;
13855;SDS011;6998;53.608;9.958;2022-10-30T13:03:52;14.35;;;8.50;;
13855;SDS011;6998;53.608;9.958;2022-10-30T13:06:26;12.73;;;8.35;;
13855;SDS011;6998;53.608;9.958;2022-10-30T13:09:01;15.43;;;8.63;;
13855;SDS011;6998;53.608;9.958;2022-10-30T13:11:38;14.35;;;8.15;;
13855;SDS011;6998;53.608;9.958;2022-10-30T13:14:12;12.68;;;8.73;;
13855;SDS011;6998;53.608;9.958;2022-10-30T13:16:44;16.83;;;8.05;;
13855;SDS011;6998;53.608;9.958;2022-10-30T13:19:11;14.90;;;8.00;;
13855;SDS011;6998;53.608;9.958;2022-10-30T13:21:41;14.65;;;8.18;;
13855;SDS011;6998;53.608;9.958;2022-10-30T13:24:15;16.10;;;8.93;;
13855;SDS011;6998;53.608;9.958;2022-10-30T13:26:48;17.95;;;9.55;;
13855;SDS011;6998;53.608;9.958;2022-10-30T13:29:19;12.73;;;8.20;;
13855;SDS011;6998;53.608;9.958;2022-10-30T13:31:52;12.70;;;8.63;;
13855;SDS011;6998;53.608;9.958;2022-10-30T13:34:35;14.57;;;8.43;;
13855;SDS011;6998;53.608;9.958;2022-10-30T13:37:09;18.58;;;9.13;;
13855;SDS011;6998;53.608;9.958;2022-10-30T13:39:42;14.13;;;7.85;;
13855;SDS011;6998;53.608;9.958;2022-10-30T13:42:21;15.85;;;8.60;;
13855;SDS011;6998;53.608;9.958;2022-10-30T13:45:01;15.52;;;8.23;;
13855;SDS011;6998;53.608;9.958;2022-10-30T13:47:46;14.43;;;7.70;;
13855;SDS011;6998;53.608;9.958;2022-10-30T13:50:26;15.43;;;8.82;;
13855;SDS011;6998;53.608;9.958;2022-10-30T13:53:04;15.63;;;8.20;;
13855;SDS011;6998;53.608;9.958;2022-10-30T13:55:38;15.13;;;8.13;;
13855;SDS011;6998;53.608;9.958;2022-10-30T13:58:07;17.55;;;9.25;;
13855;SDS011;6998;53.608;9.958;2022-10-30T14:00:48;11.75;;;7.53;;
13855;SDS011;6998;53.608;9.958;2022-10-30T14:03:22;12.52;;;8.02;;
13855;SDS011;6998;53.608;9.958;2022-10-30T14:06:06;14.52;;;8.20;;
13855;SDS011;6998;53.608;9.958;2022-10-30T14:08:41;9.90;;;6.97;;
13855;SDS011;6998;53.608;9.958;2022-10-30T14:11:13;14.55;;;7.45;;
13855;SDS011;6998;53.608;9.958;2022-10-30T14:13:44;11.65;;;7.32;;
13855;SDS011;6998;53.608;9.958;2022-10-30T14:16:37;11.57;;;7.65;;
13855;SDS011;6998;53.608;9.958;2022-10-30T14:19:07;8.60;;;6.75;;
13855;SDS011;6998;53.608;9.958;2022-10-30T14:21:37;14.70;;;8.10;;
13855;SDS011;6998;53.608;9.958;2022-10-30T14:24:10;12.68;;;7.82;;
13855;SDS011;6998;53.608;9.958;2022-10-30T14:26:40;15.95;;;8.10;;
13855;SDS011;6998;53.608;9.958;2022-10-30T14:29:30;14.43;;;8.05;;
13855;SDS011;6998;53.608;9.958;2022-10-30T14:32:34;14.52;;;7.38;;
13855;SDS011;6998;53.608;9.958;2022-10-30T14:38:05;17.20;;;7.88;;
13855;SDS011;6998;53.608;9.958;2022-10-30T14:47:05;14.98;;;7.18;;
13855;SDS011;6998;53.608;9.958;2022-10-30T14:50:02;12.55;;;7.40;;
13855;SDS011;6998;53.608;9.958;2022-10-30T14:52:41;16.35;;;7.90;;
13855;SDS011;6998;53.608;9.958;2022-10-30T14:55:24;11.57;;;8.30;;
13855;SDS011;6998;53.608;9.958;2022-10-30T15:00:45;10.73;;;7.85;;
13855;SDS011;6998;53.608;9.958;2022-10-30T15:03:14;9.88;;;7.45;;
13855;SDS011;6998;53.608;9.958;2022-10-30T15:05:50;13.95;;;7.65;;
13855;SDS011;6998;53.608;9.958;2022-10-30T15:08:29;9.98;;;7.47;;